Hovedside
METAR-TAF:

METAR-TAF

Lufthavner :

Pyongyang, Nord-Korea

Sunan internasjonale lufthavn

breddegrad: 39-02N, lengdegrad: 125-47E, høyde over havet: 36 m

METAR: fraværende

Tid: 03:58 (19:28 UTC)

Varsel

Denne rapporten ble laget for 14 timer og 58 minutter siden, klokken 04:30 UTC
Varsel gyldig fra 19. klokken 06 UTC til 20. klokken 06 UTC
Vind 6 kt fra Sør
Sikt: 6000 m
Spredte skyer i en høyde av 3000 ft
Blir
fra 19. klokken 12 UTC til 19. klokken 14 UTC
Sikt: 4000 m
Overskyet i en høyde av 2700 ft
dis
Midlertidig
fra 19. klokken 22 UTC til 20. klokken 01 UTC
Vind 6 kt fra Vest-sørvest
Sikt: 1000 m
Blir
fra 20. klokken 02 UTC til 20. klokken 04 UTC
Vind 8 kt fra Nord-nordvest
Sikt 10 km eller mer
ingen skyer under 1500 m og ingen bygeskyer

TAF: ZKPY 190430Z 1906/2006 18003MPS 6000 SCT030 BECMG 1912/1914 4000 BR OVC027 TEMPO 1922/2001 24003MPS 1000 BECMG 2002/2004 34004MPS CAVOK TX03/1906Z TNM05/1922Z

Værobservasjoner og værvarsel for over 4000 flyplasser (METAR- og TAF-rapporter).

Tilgjengelige stasjoner er representert av de røde og gule prikkene på kartet.

Hold musepekeren over prikken for å se navnet på stasjonen.

Klikk så for å se værobservasjoner og -varsler.

For å forandre kartet kan du klikke på den grønne knappen med svart kryss for å zoome inn, på den grønne knappen med strek for å zoome ut, eller på de grønne pilene for å se tilstøtende kart.


METAR-TAF: